createdAt,value
2023-03-23T15:57:54.825Z,98562.84
2023-03-23T16:00:26.096Z,98563.81
2023-03-23T16:03:06.468Z,98563.22
2023-03-23T16:05:34.987Z,98564.94
2023-03-23T16:08:02.630Z,98583.47
2023-03-23T16:10:30.608Z,98576.13
2023-03-23T16:13:00.820Z,98568.88
2023-03-23T16:15:28.390Z,98561.59
2023-03-23T16:17:56.460Z,98573.09
2023-03-23T16:20:24.498Z,98568.25
2023-03-23T16:22:52.538Z,98558.72
2023-03-23T16:25:20.256Z,98568.81
2023-03-23T16:27:52.316Z,98574.75
2023-03-23T16:30:23.893Z,98578.41
2023-03-23T16:32:52.857Z,98575.09
2023-03-23T16:35:22.346Z,98580.22
2023-03-23T16:38:08.256Z,98584.56
2023-03-23T16:40:37.740Z,98581.78
2023-03-23T16:43:09.249Z,98573.22
2023-03-23T16:45:40.483Z,98573.34
2023-03-23T16:48:10.360Z,98576.56
2023-03-23T16:50:39.034Z,98581.38
2023-03-23T16:53:08.478Z,98582.72
2023-03-23T16:55:37.599Z,98587.88
2023-03-23T16:58:16.462Z,98591.03
2023-03-23T17:00:48.859Z,98588.13
2023-03-23T17:03:18.673Z,98587.28
2023-03-23T17:05:48.796Z,98587.19
2023-03-23T17:08:18.035Z,98584.66
2023-03-23T17:10:46.575Z,98589.66
2023-03-23T17:13:14.508Z,98593.09
2023-03-23T17:15:46.602Z,98596.84
2023-03-23T17:18:16.443Z,98587.59
2023-03-23T17:20:44.479Z,98601.28
2023-03-23T17:23:12.668Z,98602.53
2023-03-23T17:25:40.634Z,98599.34
2023-03-23T17:28:08.410Z,98604.19
2023-03-23T17:30:36.030Z,98600.16
2023-03-23T17:33:03.765Z,98606.31
2023-03-23T17:35:31.792Z,98614.78
2023-03-23T17:37:59.592Z,98612.63
2023-03-23T17:40:27.177Z,98622.75
2023-03-23T17:42:54.957Z,98628.22
2023-03-23T17:45:22.607Z,98622.13
2023-03-23T17:47:50.281Z,98624.88
2023-03-23T17:50:18.464Z,98632.22
2023-03-23T17:52:46.280Z,98627.19
2023-03-23T17:55:13.749Z,98631.69
2023-03-23T17:57:41.629Z,98630.63
2023-03-23T18:00:12.161Z,98630.66
2023-03-23T18:02:39.894Z,98633.63
2023-03-23T18:05:09.500Z,98632.84
2023-03-23T18:07:37.682Z,98642.16
2023-03-23T18:10:12.821Z,98640.25
2023-03-23T18:12:41.776Z,98638.53
2023-03-23T18:15:10.167Z,98648.03
2023-03-23T18:17:38.255Z,98646.09
2023-03-23T18:20:08.716Z,98652.84
2023-03-23T18:22:36.917Z,98654.16
2023-03-23T18:25:05.228Z,98651.56
2023-03-23T18:27:34.182Z,98652.22
2023-03-23T18:30:03.122Z,98652.22
2023-03-23T18:32:36.139Z,98657.25
2023-03-23T18:35:05.088Z,98664.06
2023-03-23T18:37:33.500Z,98653.94
2023-03-23T18:40:01.731Z,98662.72
2023-03-23T18:42:29.990Z,98656.88
2023-03-23T18:44:59.939Z,98654.25
2023-03-23T18:47:27.847Z,98661.50
2023-03-23T18:49:56.118Z,98660.81
2023-03-23T18:52:26.580Z,98661.22
2023-03-23T18:54:54.900Z,98655.28
2023-03-23T18:57:23.637Z,98663.09
2023-03-23T18:59:51.785Z,98664.66
2023-03-23T19:02:20.926Z,98662.03
2023-03-23T19:04:49.241Z,98662.84
2023-03-23T19:07:18.560Z,98667.66
2023-03-23T19:09:47.447Z,98652.84
2023-03-23T19:12:15.855Z,98655.84
2023-03-23T19:14:43.902Z,98653.19
2023-03-23T19:17:11.956Z,98644.25
2023-03-23T19:19:43.085Z,98650.75
2023-03-23T19:22:12.612Z,98658.25
2023-03-23T19:24:40.733Z,98649.78
2023-03-23T19:27:09.904Z,98640.66
2023-03-23T19:29:39.788Z,98645.53
2023-03-23T19:32:08.439Z,98653.66
2023-03-23T19:34:39.132Z,98655.22
2023-03-23T19:37:11.110Z,98655.03
2023-03-23T19:39:42.556Z,98659.56
2023-03-23T19:42:11.116Z,98658.84
2023-03-23T19:44:41.190Z,98661.66
2023-03-23T19:47:09.779Z,98670.88
2023-03-23T19:49:38.934Z,98665.06
2023-03-23T19:52:12.537Z,98667.94
2023-03-23T19:54:42.358Z,98677.66
2023-03-23T19:57:10.788Z,98674.22
2023-03-23T19:59:39.238Z,98670.16
2023-03-23T20:02:07.407Z,98668.09
2023-03-23T20:04:35.911Z,98670.53
2023-03-23T20:07:07.379Z,98672.13
2023-03-23T20:09:36.964Z,98671.00
2023-03-23T20:12:06.339Z,98673.06
2023-03-23T20:14:36.880Z,98672.75
2023-03-23T20:17:06.006Z,98675.25
2023-03-23T20:19:34.995Z,98672.25
2023-03-23T20:22:04.620Z,98669.50
2023-03-23T20:24:32.510Z,98660.91
2023-03-23T20:27:03.119Z,98670.63
2023-03-23T20:29:33.390Z,98669.28
2023-03-23T20:32:01.429Z,98678.34
2023-03-23T20:34:29.405Z,98674.19
2023-03-23T20:36:59.179Z,98672.50
2023-03-23T20:39:31.028Z,98677.47
2023-03-23T20:42:02.951Z,98680.31
2023-03-23T20:44:35.433Z,98682.25
2023-03-23T20:47:04.397Z,98673.59
2023-03-23T20:49:34.754Z,98680.84
2023-03-23T20:52:03.724Z,98681.03
2023-03-23T20:54:31.765Z,98681.06
2023-03-23T20:56:59.796Z,98679.31
2023-03-23T20:59:28.135Z,98680.34
2023-03-23T21:01:56.820Z,98680.25
2023-03-23T21:04:27.264Z,98675.38
2023-03-23T21:06:56.009Z,98682.75
2023-03-23T21:09:25.360Z,98678.47
2023-03-23T21:11:53.295Z,98679.91
2023-03-23T21:14:21.515Z,98670.53
2023-03-23T21:16:49.159Z,98658.59
2023-03-23T21:19:17.202Z,98667.56
2023-03-23T21:21:56.722Z,98670.13
2023-03-23T21:24:30.390Z,98666.06
2023-03-23T21:27:00.353Z,98665.97
2023-03-23T21:29:28.629Z,98666.31
2023-03-23T21:34:27.857Z,98674.69
2023-03-23T21:36:55.486Z,98674.94
2023-03-23T21:39:23.583Z,98679.88
2023-03-23T21:41:51.210Z,98676.84
2023-03-23T21:44:18.779Z,98677.66
2023-03-23T21:46:46.522Z,98671.41
2023-03-23T21:49:14.496Z,98673.94
2023-03-23T21:51:43.252Z,98664.84
2023-03-23T21:54:11.671Z,98663.84
2023-03-23T21:56:39.303Z,98661.78
2023-03-23T21:59:07.799Z,98674.00
2023-03-23T22:01:40.380Z,98669.50
2023-03-23T22:04:08.819Z,98664.69
2023-03-23T22:06:36.432Z,98662.53
2023-03-23T22:09:05.504Z,98665.78
2023-03-23T22:11:34.348Z,98670.13
2023-03-23T22:14:03.230Z,98674.50
2023-03-23T22:16:31.564Z,98675.16
2023-03-23T22:19:00.602Z,98675.13
2023-03-23T22:21:29.135Z,98672.53
2023-03-23T22:23:58.820Z,98669.28
2023-03-23T22:26:27.722Z,98670.13
2023-03-23T22:28:56.258Z,98667.88
2023-03-23T22:31:26.610Z,98684.66
2023-03-23T22:33:56.560Z,98681.16
2023-03-23T22:36:26.262Z,98685.22
2023-03-23T22:38:55.596Z,98680.19
2023-03-23T22:41:26.992Z,98673.31
2023-03-23T22:43:55.203Z,98683.66
2023-03-23T22:46:24.381Z,98685.09
2023-03-23T22:48:52.772Z,98686.94
2023-03-23T22:51:21.322Z,98677.84
2023-03-23T22:53:49.876Z,98680.09
2023-03-23T22:56:18.224Z,98681.78
2023-03-23T22:58:46.044Z,98681.69
2023-03-23T23:01:17.320Z,98684.47
2023-03-23T23:03:46.001Z,98686.16
2023-03-23T23:06:15.678Z,98685.41
2023-03-23T23:08:45.628Z,98674.81
2023-03-23T23:11:16.224Z,98689.22
2023-03-23T23:13:44.317Z,98692.78
2023-03-23T23:16:14.227Z,98693.38
2023-03-23T23:18:42.014Z,98688.41
2023-03-23T23:21:14.359Z,98684.38
2023-03-23T23:23:42.538Z,98691.38
2023-03-23T23:26:10.097Z,98689.47
2023-03-23T23:28:38.167Z,98687.34
2023-03-23T23:31:15.525Z,98688.13
2023-03-23T23:33:43.233Z,98691.88
2023-03-23T23:36:12.200Z,98687.31
2023-03-23T23:38:40.244Z,98682.47
2023-03-23T23:41:09.478Z,98690.59
2023-03-23T23:43:37.243Z,98681.44
2023-03-23T23:46:05.062Z,98675.97
2023-03-23T23:48:34.409Z,98684.38
2023-03-23T23:51:01.994Z,98678.47
2023-03-23T23:53:31.843Z,98669.81
2023-03-23T23:56:04.282Z,98673.84
2023-03-23T23:58:31.980Z,98678.19
